Time;durP1;ratioP1;P1;durP2;ratioP2;P2;SDS_P1;SDS_P2;PMS_P1;PMS_P2;Temp;Humidity;BMP_temperature;BMP_pressure;BME280_temperature;BME280_humidity;BME280_pressure;Samples;Min_cycle;Max_cycle;Signal;HPM_P1;HPM_P2
2022/12/25 00:00:54;;;;;;;81.70;20.58;;;;;;;2.58;100.00;101289.63;2079850;28;33172;-75
2022/12/25 00:01:56;;;;;;;81.65;22.15;;;;;;;2.57;100.00;101290.50;2079882;28;28513;-75
2022/12/25 00:02:58;;;;;;;86.18;20.67;;;;;;;2.50;100.00;101286.00;2079511;28;37377;-75
2022/12/25 00:04:00;;;;;;;80.47;20.73;;;;;;;2.46;100.00;101287.69;2079009;28;41995;-75
2022/12/25 00:05:02;;;;;;;78.15;20.13;;;;;;;2.47;100.00;101286.81;2080274;28;20038;-75
2022/12/25 00:06:04;;;;;;;78.70;19.65;;;;;;;2.46;100.00;101278.91;2079221;28;39997;-75
2022/12/25 00:07:08;;;;;;;70.00;19.98;;;;;;;2.46;100.00;101287.69;2080162;28;37658;-75
2022/12/25 00:08:10;;;;;;;63.33;19.08;;;;;;;2.44;100.00;101283.25;2079253;28;36605;-75
2022/12/25 00:09:11;;;;;;;67.53;19.70;;;;;;;2.44;100.00;101285.88;2079771;28;39757;-75
2022/12/25 00:10:13;;;;;;;76.63;20.85;;;;;;;2.45;100.00;101288.56;2080305;28;20046;-75
2022/12/25 00:11:18;;;;;;;99.05;20.35;;;;;;;2.46;100.00;101290.34;2079618;28;41131;-75
2022/12/25 00:12:21;;;;;;;89.47;21.70;;;;;;;2.47;100.00;101292.09;2080387;28;20057;-75
2022/12/25 00:13:23;;;;;;;71.65;20.65;;;;;;;2.43;100.00;101285.00;2079499;28;39888;-77
2022/12/25 00:14:24;;;;;;;81.90;21.33;;;;;;;2.48;100.00;101288.59;2079539;28;38228;-75
2022/12/25 00:15:26;;;;;;;73.72;21.02;;;;;;;2.43;100.00;101295.56;2079761;28;24300;-77
2022/12/25 00:16:28;;;;;;;77.38;21.83;;;;;;;2.52;100.00;101301.88;2080162;28;20132;-77
2022/12/25 00:17:30;;;;;;;73.80;20.63;;;;;;;2.42;100.00;101298.19;2079442;28;37810;-74
2022/12/25 00:18:31;;;;;;;89.20;21.70;;;;;;;2.45;100.00;101295.59;2079319;28;40559;-77
2022/12/25 00:19:35;;;;;;;87.43;22.30;;;;;;;2.44;100.00;101296.44;2079139;28;20990;-77
2022/12/25 00:20:37;;;;;;;85.40;20.27;;;;;;;2.39;100.00;101291.13;2078847;28;41609;-75
2022/12/25 00:21:39;;;;;;;88.03;21.67;;;;;;;2.40;100.00;101289.34;2079569;28;36841;-75
2022/12/25 00:22:40;;;;;;;89.93;20.92;;;;;;;2.36;100.00;101300.75;2078951;28;41632;-75
2022/12/25 00:23:42;;;;;;;86.68;21.60;;;;;;;2.36;100.00;101298.09;2079698;28;23455;-74
2022/12/25 00:24:46;;;;;;;81.82;21.55;;;;;;;2.34;100.00;101290.13;2079082;28;40004;-75
2022/12/25 00:25:48;;;;;;;80.07;21.50;;;;;;;2.35;100.00;101299.88;2079422;28;41676;-75
2022/12/25 00:26:49;;;;;;;87.38;21.92;;;;;;;2.42;100.00;101295.53;2079370;28;41041;-75
2022/12/25 00:27:51;;;;;;;86.22;21.30;;;;;;;2.39;100.00;101296.41;2078899;28;33626;-77
2022/12/25 00:28:55;;;;;;;100.15;22.63;;;;;;;2.39;100.00;101292.88;2078840;28;41969;-77
2022/12/25 00:29:56;;;;;;;79.22;21.25;;;;;;;2.36;100.00;101292.81;2080708;28;20041;-76
2022/12/25 00:30:58;;;;;;;86.20;21.88;;;;;;;2.35;100.00;101291.03;2079445;28;39374;-75
2022/12/25 00:32:00;;;;;;;86.70;21.08;;;;;;;2.33;100.00;101283.06;2079371;28;37796;-76
2022/12/25 00:33:02;;;;;;;79.25;20.20;;;;;;;2.29;100.00;101289.19;2080275;28;20026;-76
2022/12/25 00:34:04;;;;;;;80.75;20.40;;;;;;;2.28;100.00;101292.69;2079400;28;39914;-76
2022/12/25 00:35:06;;;;;;;76.18;19.75;;;;;;;2.26;100.00;101287.38;2079280;28;42517;-76
2022/12/25 00:36:10;;;;;;;93.95;22.20;;;;;;;2.34;100.00;101299.84;2079490;28;36170;-74
2022/12/25 00:37:13;;;;;;;93.07;20.83;;;;;;;2.31;100.00;101294.50;2080342;28;20835;-75
2022/12/25 00:38:15;;;;;;;75.40;20.20;;;;;;;2.27;100.00;101307.63;2079651;28;20045;-75
2022/12/25 00:39:17;;;;;;;79.43;22.42;;;;;;;2.27;100.00;101298.84;2079112;28;39629;-77
2022/12/25 00:40:18;;;;;;;93.00;20.95;;;;;;;2.23;100.00;101297.88;2079162;28;40872;-76
2022/12/25 00:42:43;;;;;;;76.18;20.40;;;;;;;2.28;100.00;101293.56;2079064;28;43744;-76
2022/12/25 00:43:45;;;;;;;98.82;22.83;;;;;;;2.34;100.00;101289.25;2079342;28;39312;-75
2022/12/25 00:44:49;;;;;;;98.80;22.48;;;;;;;2.31;100.00;101286.56;2079436;28;39178;-75
2022/12/25 00:46:00;;;;;;;87.15;22.45;;;;;;;2.28;100.00;101283.00;2079483;28;39750;-77
2022/12/25 00:47:02;;;;;;;81.88;21.52;;;;;;;2.32;100.00;101277.78;2079571;28;38295;-76
2022/12/25 00:48:04;;;;;;;90.43;21.95;;;;;;;2.34;100.00;101278.69;2079155;28;41851;-77
2022/12/25 00:49:07;;;;;;;93.60;21.88;;;;;;;2.34;100.00;101279.56;2080190;28;20132;-77
2022/12/25 00:50:09;;;;;;;99.72;23.25;;;;;;;2.32;100.00;101285.72;2079475;28;37873;-75
2022/12/25 00:51:11;;;;;;;73.50;19.65;;;;;;;2.28;100.00;101288.28;2079101;28;38498;-77
2022/12/25 00:52:13;;;;;;;85.25;20.52;;;;;;;2.24;100.00;101282.91;2081017;28;38653;-75
2022/12/25 00:53:14;;;;;;;91.40;22.65;;;;;;;2.22;100.00;101285.53;2080391;28;37840;-75
2022/12/25 00:54:16;;;;;;;88.65;22.65;;;;;;;2.22;100.00;101288.19;2081593;28;20041;-76
2022/12/25 00:55:21;;;;;;;82.30;20.20;;;;;;;2.17;100.00;101281.94;2080904;28;42720;-75
2022/12/25 00:56:23;;;;;;;98.18;22.30;;;;;;;2.16;100.00;101274.00;2080795;28;38384;-75
2022/12/25 00:57:25;;;;;;;101.38;21.10;;;;;;;2.17;100.00;101266.09;2081001;28;37280;-75
2022/12/25 00:58:29;;;;;;;91.70;21.23;;;;;;;2.21;100.00;101273.22;2080706;28;43044;-75
2022/12/25 00:59:33;;;;;;;95.82;22.92;;;;;;;2.21;100.00;101278.50;2080605;28;38083;-77
2022/12/25 01:00:35;;;;;;;81.07;21.30;;;;;;;2.18;100.00;101273.16;2080521;28;35914;-77
2022/12/25 01:01:39;;;;;;;83.38;21.35;;;;;;;2.18;100.00;101269.63;2080640;28;42881;-77
2022/12/25 01:02:41;;;;;;;101.88;22.13;;;;;;;2.19;100.00;101263.47;2080594;28;38442;-77
2022/12/25 01:03:46;;;;;;;102.60;22.65;;;;;;;2.20;100.00;101275.81;2080663;28;41811;-75
2022/12/25 01:04:49;;;;;;;85.32;21.52;;;;;;;2.19;100.00;101274.94;2080664;28;36471;-75
2022/12/25 01:06:01;;;;;;;94.00;22.40;;;;;;;2.26;100.00;101270.63;2080658;28;38350;-76
2022/12/25 01:07:03;;;;;;;84.18;21.67;;;;;;;2.23;100.00;101275.88;2081400;28;20038;-76
2022/12/25 01:08:13;;;;;;;89.72;22.45;;;;;;;2.21;100.00;101277.59;2080548;28;39562;-75
2022/12/25 01:10:35;;;;;;;85.10;21.98;;;;;;;2.14;100.00;101288.94;2080256;28;43408;-75
2022/12/25 01:11:37;;;;;;;86.28;20.52;;;;;;;2.12;100.00;101286.25;2080657;28;38251;-75
2022/12/25 01:12:41;;;;;;;90.50;21.90;;;;;;;2.11;100.00;101295.03;2080672;28;38933;-74
2022/12/25 01:13:43;;;;;;;107.82;23.05;;;;;;;2.14;100.00;101292.47;2080745;28;36231;-76
2022/12/25 01:14:44;;;;;;;94.28;22.48;;;;;;;2.18;100.00;101283.72;2080972;28;39521;-76
2022/12/25 01:15:46;;;;;;;99.55;23.58;;;;;;;2.26;100.00;101287.38;2080801;28;38610;-75
2022/12/25 01:16:48;;;;;;;111.38;24.02;;;;;;;2.24;100.00;101281.19;2080839;28;36492;-75
2022/12/25 01:17:50;;;;;;;98.40;23.55;;;;;;;2.25;100.00;101290.00;2080333;28;42076;-74
2022/12/25 01:18:51;;;;;;;93.47;23.60;;;;;;;2.25;100.00;101293.50;2080660;28;41080;-75
2022/12/25 01:19:53;;;;;;;104.65;23.80;;;;;;;2.25;100.00;101290.00;2080523;28;40453;-74
2022/12/25 01:20:55;;;;;;;98.03;23.65;;;;;;;2.20;100.00;101287.25;2080159;28;42831;-75
2022/12/25 01:21:56;;;;;;;102.18;23.50;;;;;;;2.23;100.00;101289.09;2080932;28;23254;-75
2022/12/25 01:23:00;;;;;;;103.90;22.77;;;;;;;2.23;100.00;101292.59;2080192;28;36958;-75
2022/12/25 01:24:02;;;;;;;88.90;23.48;;;;;;;2.26;100.00;101294.41;2080142;28;40779;-75
2022/12/25 01:25:05;;;;;;;106.90;23.38;;;;;;;2.30;100.00;101293.59;2080775;28;35673;-74
2022/12/25 01:26:10;;;;;;;106.80;23.05;;;;;;;2.33;100.00;101296.28;2080014;28;38248;-75
2022/12/25 01:27:12;;;;;;;105.85;25.02;;;;;;;2.34;100.00;101299.84;2079994;28;39764;-75
2022/12/25 01:28:15;;;;;;;90.82;21.98;;;;;;;2.33;100.00;101303.31;2081202;28;20077;-77
2022/12/25 01:29:17;;;;;;;110.28;24.65;;;;;;;2.33;100.00;101301.56;2080383;28;42670;-77
2022/12/25 01:30:22;;;;;;;108.75;25.75;;;;;;;2.37;100.00;101302.50;2081128;28;20050;-77
2022/12/25 01:31:24;;;;;;;112.45;25.65;;;;;;;2.38;100.00;101299.00;2080164;28;38465;-76
2022/12/25 01:32:25;;;;;;;104.22;27.23;;;;;;;2.38;100.00;101299.88;2080120;28;38846;-77
2022/12/25 01:33:27;;;;;;;107.93;24.75;;;;;;;2.43;100.00;101295.56;2081225;28;23849;-76
2022/12/25 01:34:31;;;;;;;95.72;25.45;;;;;;;2.45;100.00;101295.59;2080416;28;40170;-76
2022/12/25 01:35:33;;;;;;;131.90;26.10;;;;;;;2.46;100.00;101308.84;2080548;28;37955;-77
2022/12/25 01:36:35;;;;;;;116.78;26.08;;;;;;;2.49;100.00;101292.13;2080491;28;41502;-77
2022/12/25 01:37:39;;;;;;;102.43;24.42;;;;;;;2.50;100.00;101291.28;2081449;28;20882;-77
2022/12/25 01:38:42;;;;;;;114.18;26.40;;;;;;;2.54;100.00;101284.28;2080834;28;20046;-76
2022/12/25 01:39:44;;;;;;;100.25;24.00;;;;;;;2.55;100.00;101281.69;2080224;28;37767;-75
2022/12/25 01:40:45;;;;;;;110.50;26.98;;;;;;;2.54;100.00;101293.09;2080301;28;36923;-75
2022/12/25 01:41:47;;;;;;;114.47;25.25;;;;;;;2.55;100.00;101286.97;2081109;28;20236;-77
2022/12/25 01:42:49;;;;;;;115.53;26.17;;;;;;;2.55;100.00;101291.34;2080189;28;42760;-77
2022/12/25 01:44:26;;;;;;;104.20;25.15;;;;;;;2.55;100.00;101294.88;2080258;28;39461;-77
2022/12/25 01:45:41;;;;;;;105.38;24.83;;;;;;;2.59;100.00;101295.81;2080401;28;42046;-76
2022/12/25 01:46:43;;;;;;;99.50;23.95;;;;;;;2.54;100.00;101295.75;2080136;28;36028;-76
2022/12/25 01:47:44;;;;;;;107.30;24.95;;;;;;;2.56;100.00;101301.94;2079615;28;38889;-77
2022/12/25 01:48:50;;;;;;;111.60;25.10;;;;;;;2.58;100.00;101300.19;2081088;28;20045;-77
2022/12/25 01:49:51;;;;;;;108.53;24.23;;;;;;;2.57;100.00;101297.56;2080393;28;39587;-75
2022/12/25 01:51:04;;;;;;;110.70;25.30;;;;;;;2.51;100.00;101295.69;2080693;28;20050;-77
2022/12/25 01:52:18;;;;;;;99.03;24.42;;;;;;;2.54;100.00;101293.09;2080250;28;20050;-76
2022/12/25 01:53:25;;;;;;;97.00;24.08;;;;;;;2.59;100.00;101288.78;2075988;28;37592;-75
2022/12/25 01:54:33;;;;;;;115.18;25.10;;;;;;;2.60;100.00;101294.94;2065933;28;34019;-77
2022/12/25 01:55:36;;;;;;;110.57;23.00;;;;;;;2.56;100.00;101291.38;2072668;28;36859;-77
2022/12/25 01:56:40;;;;;;;114.70;24.48;;;;;;;2.57;100.00;101295.78;2078716;28;38274;-77
2022/12/25 01:57:43;;;;;;;133.85;25.88;;;;;;;2.61;100.00;101296.75;2073053;28;20053;-77
2022/12/25 01:58:45;;;;;;;105.78;25.58;;;;;;;2.59;100.00;101296.72;2080163;28;41255;-77
2022/12/25 01:59:48;;;;;;;114.00;25.83;;;;;;;2.59;100.00;101288.78;2080537;28;40530;-77
2022/12/25 02:00:52;;;;;;;113.25;25.30;;;;;;;2.60;100.00;101292.31;2080112;28;35910;-77
2022/12/25 02:01:55;;;;;;;111.13;26.05;;;;;;;2.62;100.00;101302.06;2078635;28;38514;-77
2022/12/25 02:02:58;;;;;;;112.30;25.17;;;;;;;2.59;100.00;101309.94;2063305;28;38825;-77
2022/12/25 02:04:20;;;;;;;86.40;22.48;;;;;;;2.54;100.00;101313.38;2072064;28;37155;-77
2022/12/25 02:05:29;;;;;;;104.18;22.27;;;;;;;2.53;100.00;101317.78;2076768;28;44483;-76
2022/12/25 02:06:33;;;;;;;101.43;22.80;;;;;;;2.56;100.00;101319.56;2066112;28;39417;-78
2022/12/25 02:07:40;;;;;;;122.38;24.83;;;;;;;2.58;100.00;101315.19;2072588;28;42101;-77
2022/12/25 02:08:42;;;;;;;121.45;23.85;;;;;;;2.58;100.00;101326.63;2078394;28;35712;-76
2022/12/25 02:09:44;;;;;;;90.03;21.63;;;;;;;2.57;100.00;101326.63;2072480;28;38983;-74
2022/12/25 02:10:46;;;;;;;110.47;25.15;;;;;;;2.56;100.00;101327.50;2080898;28;20041;-76
2022/12/25 02:11:57;;;;;;;105.13;25.20;;;;;;;2.57;100.00;101321.34;2080397;28;36206;-77
2022/12/25 02:13:01;;;;;;;113.78;25.88;;;;;;;2.58;100.00;101326.63;2080472;28;41803;-77
2022/12/25 02:14:03;;;;;;;105.63;25.70;;;;;;;2.58;100.00;101321.34;2080338;28;36562;-77
2022/12/25 02:15:10;;;;;;;97.90;23.50;;;;;;;2.59;100.00;101317.84;2080360;28;36095;-75
2022/12/25 02:16:14;;;;;;;120.65;25.02;;;;;;;2.66;100.00;101322.38;2081658;28;39859;-75
2022/12/25 02:17:45;;;;;;;116.90;24.48;;;;;;;2.70;100.00;101319.78;2084267;28;35806;-78
2022/12/25 02:18:55;;;;;;;99.72;24.27;;;;;;;2.68;100.00;101322.41;2083679;28;37027;-77
2022/12/25 02:20:29;;;;;;;109.80;23.38;;;;;;;2.71;100.00;101318.91;2078387;28;40335;-76
2022/12/25 02:21:57;;;;;;;101.00;23.25;;;;;;;2.68;100.00;101319.75;2067964;28;39974;-75
2022/12/25 02:23:39;;;;;;;102.45;22.45;;;;;;;2.71;100.00;101317.16;2074870;28;40351;-75
2022/12/25 02:25:00;;;;;;;105.50;21.50;;;;;;;2.72;100.00;101316.28;2079555;28;41192;-76
2022/12/25 02:26:57;;;;;;;117.60;23.90;;;;;;;2.74;100.00;101317.19;2079960;28;39063;-75
2022/12/25 02:28:18;;;;;;;113.07;23.58;;;;;;;2.75;100.00;101315.47;2080833;28;21179;-75
2022/12/25 02:29:44;;;;;;;115.43;25.08;;;;;;;2.89;100.00;101316.56;2079245;28;37470;-75
2022/12/25 02:31:00;;;;;;;109.20;23.77;;;;;;;2.85;100.00;101314.72;2079756;28;39967;-75
2022/12/25 02:32:33;;;;;;;115.68;25.95;;;;;;;2.82;100.00;101312.94;2079449;28;40071;-76
2022/12/25 02:34:04;;;;;;;118.55;24.58;;;;;;;2.85;100.00;101315.63;2080513;28;20045;-75
2022/12/25 02:35:23;;;;;;;118.03;24.25;;;;;;;2.81;100.00;101323.47;2080226;28;41909;-76
2022/12/25 02:36:34;;;;;;;114.05;23.00;;;;;;;2.79;100.00;101314.63;2080070;28;25143;-76
2022/12/25 02:38:09;;;;;;;116.50;25.13;;;;;;;2.81;100.00;101323.47;2077433;28;20043;-76
2022/12/25 02:41:06;;;;;;;116.03;24.33;;;;;;;2.86;100.00;101319.16;2079829;28;40142;-76
2022/12/25 02:42:13;;;;;;;116.43;23.30;;;;;;;2.78;100.00;101326.97;2079807;28;44411;-75
2022/12/25 03:07:21;;;;;;;113.03;27.33;;;;;;;2.72;100.00;101300.41;2060706;28;20090;-77
2022/12/25 03:08:34;;;;;;;136.30;28.75;;;;;;;2.80;100.00;101306.72;2062829;28;36506;-77
2022/12/25 03:11:31;;;;;;;113.35;26.92;;;;;;;2.80;100.00;101309.38;2062798;28;39197;-76
2022/12/25 03:13:11;;;;;;;131.95;28.83;;;;;;;2.79;100.00;101310.22;2070264;28;44733;-77
2022/12/25 03:16:57;;;;;;;137.65;27.92;;;;;;;2.82;100.00;101296.19;2072405;28;20042;-76
2022/12/25 03:18:04;;;;;;;124.35;28.80;;;;;;;2.84;100.00;101297.97;2063193;28;41139;-77
2022/12/25 03:27:27;;;;;;;;;;;;;;;3.21;100.00;101290.53;2071654;28;33978;-75
2022/12/25 03:28:31;;;;;;;116.20;28.55;;;;;;;3.27;100.00;101296.75;2074426;28;40084;-76
2022/12/25 03:31:24;;;;;;;122.30;30.15;;;;;;;3.30;100.00;101295.03;2071821;28;20876;-75
2022/12/25 03:32:51;;;;;;;141.05;31.52;;;;;;;3.32;100.00;101289.75;2078577;28;37472;-73
2022/12/25 03:36:31;;;;;;;132.70;31.23;;;;;;;3.32;100.00;101279.19;2054400;28;42089;-75
2022/12/25 03:48:06;;;;;;;142.93;31.35;;;;;;;3.39;100.00;101262.50;2071562;28;20054;-77
2022/12/25 04:36:59;;;;;;;138.75;33.40;;;;;;;4.15;100.00;101206.75;2073150;28;39161;-79
2022/12/25 04:38:01;;;;;;;122.32;30.02;;;;;;;4.14;100.00;101198.78;2072131;28;39846;-79
2022/12/25 04:39:05;;;;;;;133.75;34.92;;;;;;;4.16;100.00;101203.25;2072883;28;38424;-79
2022/12/25 04:40:07;;;;;;;136.48;32.60;;;;;;;4.16;100.00;101199.69;2072257;28;41491;-79
2022/12/25 04:41:11;;;;;;;131.57;32.88;;;;;;;4.14;100.00;101197.03;2072364;28;39699;-79
2022/12/25 04:42:17;;;;;;;144.55;34.20;;;;;;;4.14;100.00;101199.66;2072657;28;20086;-79
2022/12/25 04:43:18;;;;;;;116.72;30.60;;;;;;;4.17;100.00;101202.34;2072392;28;29422;-79
2022/12/25 04:44:20;;;;;;;136.93;34.22;;;;;;;4.17;100.00;101202.34;2071879;28;38044;-79
2022/12/25 04:45:22;;;;;;;119.22;29.23;;;;;;;4.15;100.00;101205.88;2072609;28;39368;-80
2022/12/25 04:46:23;;;;;;;138.23;34.00;;;;;;;4.18;100.00;101196.19;2073359;28;20050;-80
2022/12/25 04:47:25;;;;;;;122.60;32.67;;;;;;;4.19;100.00;101197.06;2072816;28;38843;-80
2022/12/25 04:48:30;;;;;;;110.10;29.02;;;;;;;4.22;100.00;101197.09;2072481;28;38347;-80
2022/12/25 04:49:31;;;;;;;135.85;31.65;;;;;;;4.24;100.00;101200.66;2073188;28;22117;-81
2022/12/25 04:50:33;;;;;;;109.75;31.48;;;;;;;4.30;100.00;101197.16;2072401;28;42596;-81
2022/12/25 04:51:35;;;;;;;114.75;30.92;;;;;;;4.29;100.00;101198.00;2073198;28;36597;-81
2022/12/25 04:52:39;;;;;;;113.15;31.20;;;;;;;4.31;100.00;101196.28;2073478;28;39434;-82
2022/12/25 04:53:45;;;;;;;126.95;32.35;;;;;;;4.33;100.00;101195.41;2080855;28;41720;-82
2022/12/25 04:54:47;;;;;;;128.48;33.65;;;;;;;4.33;100.00;101189.22;2081030;28;20030;-81
2022/12/25 04:55:49;;;;;;;137.77;33.13;;;;;;;4.35;100.00;101187.47;2081067;28;41381;-82
2022/12/25 04:56:51;;;;;;;123.68;31.77;;;;;;;4.35;100.00;101198.94;2081656;28;20030;-81
2022/12/25 04:57:53;;;;;;;119.13;32.17;;;;;;;4.38;100.00;101196.31;2071883;28;43253;-82
2022/12/25 04:58:55;;;;;;;122.45;31.67;;;;;;;4.40;100.00;101207.81;2071613;28;43052;-82
2022/12/25 04:59:57;;;;;;;126.22;31.58;;;;;;;4.43;100.00;101195.47;2083978;28;38772;-82
2022/12/25 05:01:00;;;;;;;116.05;31.13;;;;;;;4.43;100.00;101198.97;2090446;28;38730;-82
2022/12/25 05:02:02;;;;;;;129.30;32.35;;;;;;;4.49;100.00;101206.13;2090764;28;38054;-82
2022/12/25 05:03:04;;;;;;;134.02;33.75;;;;;;;4.51;100.00;101194.63;2089876;28;20046;-82
2022/12/25 05:04:06;;;;;;;122.82;32.30;;;;;;;4.52;100.00;101193.78;2080879;28;38109;-83
2022/12/25 05:05:08;;;;;;;116.03;30.75;;;;;;;4.52;100.00;101191.13;2080670;28;40567;-83
2022/12/25 05:06:09;;;;;;;116.55;28.35;;;;;;;4.54;100.00;101189.34;2081674;28;20071;-83
2022/12/25 05:07:11;;;;;;;122.20;30.10;;;;;;;4.57;100.00;101193.78;2080384;28;39315;-82
2022/12/25 05:08:13;;;;;;;124.75;31.92;;;;;;;4.58;100.00;101191.13;2080789;28;37030;-83
2022/12/25 05:09:14;;;;;;;113.32;30.63;;;;;;;4.60;100.00;101199.09;2080761;28;37575;-82
2022/12/25 05:10:19;;;;;;;129.75;32.85;;;;;;;4.61;100.00;101194.69;2080712;28;40604;-83
2022/12/25 05:11:21;;;;;;;117.75;29.42;;;;;;;4.62;100.00;101186.75;2081062;28;20846;-83
2022/12/25 05:12:23;;;;;;;111.65;30.17;;;;;;;4.65;100.00;101188.50;2080489;28;40654;-82
2022/12/25 05:13:24;;;;;;;109.25;30.20;;;;;;;4.66;100.00;101193.81;2081061;28;37420;-83
2022/12/25 05:14:26;;;;;;;110.90;29.58;;;;;;;4.67;100.00;101194.72;2081376;28;20080;-82
2022/12/25 05:15:30;;;;;;;110.80;27.88;;;;;;;4.68;100.00;101201.78;2080663;28;40744;-83
2022/12/25 05:16:32;;;;;;;108.28;31.00;;;;;;;4.70;100.00;101195.63;2080929;28;36734;-83
2022/12/25 05:17:34;;;;;;;108.75;29.90;;;;;;;4.72;100.00;101200.91;2079901;28;38046;-83
2022/12/25 05:18:36;;;;;;;111.72;28.75;;;;;;;4.74;100.00;101199.19;2080359;28;36915;-83
2022/12/25 05:19:37;;;;;;;106.07;28.67;;;;;;;4.74;100.00;101197.41;2081183;28;20038;-82
2022/12/25 05:20:39;;;;;;;109.05;29.30;;;;;;;4.76;100.00;101197.44;2080924;28;38560;-83
2022/12/25 05:21:41;;;;;;;101.38;29.58;;;;;;;4.76;100.00;101200.97;2080299;28;35818;-83
2022/12/25 05:22:45;;;;;;;112.88;29.52;;;;;;;4.76;100.00;101195.66;2080473;28;37804;-82
2022/12/25 05:23:51;;;;;;;113.80;29.40;;;;;;;4.80;100.00;101200.97;2080282;28;43214;-82
2022/12/25 05:24:53;;;;;;;114.03;28.52;;;;;;;4.79;100.00;101194.75;2081738;28;20085;-82
2022/12/25 05:26:02;;;;;;;98.70;28.90;;;;;;;4.82;100.00;101186.84;2080408;28;37605;-82
2022/12/25 05:27:03;;;;;;;93.55;26.60;;;;;;;4.81;100.00;101193.03;2081088;28;32993;-82
2022/12/25 05:28:06;;;;;;;111.93;29.58;;;;;;;4.83;100.00;101188.63;2080311;28;38742;-82
2022/12/25 05:29:07;;;;;;;105.05;28.05;;;;;;;4.82;100.00;101197.44;2080727;28;40788;-83
2022/12/25 05:30:12;;;;;;;105.55;29.20;;;;;;;4.83;100.00;101200.97;2081222;28;20046;-83
2022/12/25 05:31:14;;;;;;;102.68;28.60;;;;;;;4.83;100.00;101196.56;2080647;28;40894;-82
2022/12/25 05:32:16;;;;;;;102.28;28.42;;;;;;;4.82;100.00;101189.47;2080337;28;36942;-83
2022/12/25 05:33:17;;;;;;;113.57;29.25;;;;;;;4.82;100.00;101199.22;2080623;28;40830;-82
2022/12/25 05:34:22;;;;;;;103.53;28.77;;;;;;;4.85;100.00;101189.50;2080457;28;38517;-81
2022/12/25 05:35:23;;;;;;;99.47;27.30;;;;;;;4.86;100.00;101191.25;2080976;28;20037;-81
2022/12/25 05:36:25;;;;;;;101.22;28.60;;;;;;;4.87;100.00;101192.16;2080376;28;34815;-82
2022/12/25 05:37:27;;;;;;;87.63;27.67;;;;;;;4.85;100.00;101192.16;2080742;28;31866;-82
2022/12/25 05:38:30;;;;;;;103.35;28.35;;;;;;;4.86;100.00;101193.91;2080870;28;20046;-82
2022/12/25 05:39:31;;;;;;;101.70;28.10;;;;;;;4.85;100.00;101191.28;2080775;28;38636;-82
2022/12/25 05:40:38;;;;;;;89.32;25.80;;;;;;;4.84;100.00;101198.34;2080604;28;21433;-82
2022/12/25 05:41:40;;;;;;;95.60;26.75;;;;;;;4.85;100.00;101189.50;2080292;28;42080;-82
2022/12/25 05:42:42;;;;;;;95.65;26.23;;;;;;;4.86;100.00;101201.88;2079943;28;36402;-81
2022/12/25 05:43:44;;;;;;;98.88;26.42;;;;;;;4.90;100.00;101200.13;2081428;28;20081;-81
2022/12/25 05:44:48;;;;;;;96.85;27.23;;;;;;;4.91;100.00;101208.09;2080076;28;40660;-81
2022/12/25 05:45:50;;;;;;;95.65;27.10;;;;;;;4.92;100.00;101201.03;2080803;28;36636;-80
2022/12/25 05:46:52;;;;;;;91.35;26.23;;;;;;;4.91;100.00;101201.91;2080260;28;40180;-82
2022/12/25 05:47:53;;;;;;;85.57;24.60;;;;;;;4.92;100.00;101207.22;2080618;28;39885;-81
2022/12/25 05:48:55;;;;;;;87.40;25.23;;;;;;;4.94;100.00;101207.25;2080213;28;37302;-80
2022/12/25 05:49:57;;;;;;;82.05;24.58;;;;;;;4.94;100.00;101208.13;2080351;28;39546;-81
2022/12/25 05:51:07;;;;;;;81.45;23.70;;;;;;;4.94;100.00;101207.25;2080992;28;20046;-81
2022/12/25 05:52:08;;;;;;;;;;;;;;;4.94;100.00;101210.78;2080625;28;42741;-81
2022/12/25 05:53:13;;;;;;;74.68;22.42;;;;;;;4.96;100.00;101209.00;2079433;28;38209;-79
2022/12/25 05:54:17;;;;;;;87.07;25.42;;;;;;;4.96;100.00;101208.13;2080557;28;39811;-82
2022/12/25 05:55:18;;;;;;;87.47;24.90;;;;;;;4.98;100.00;101201.94;2080174;28;40763;-81
2022/12/25 05:56:20;;;;;;;87.15;24.70;;;;;;;5.00;100.00;101209.03;2080290;28;41213;-81
2022/12/25 05:57:22;;;;;;;82.35;24.90;;;;;;;5.01;100.00;101205.47;2079875;28;42446;-81
2022/12/25 05:58:23;;;;;;;88.20;25.13;;;;;;;5.05;100.00;101204.63;2081660;28;20949;-81
2022/12/25 05:59:29;;;;;;;90.47;24.67;;;;;;;5.05;100.00;101201.97;2079956;28;41975;-81
2022/12/25 06:00:31;;;;;;;90.25;24.55;;;;;;;5.05;100.00;101202.84;2079848;28;39845;-80
2022/12/25 06:01:35;;;;;;;81.07;25.40;;;;;;;5.05;100.00;101191.38;2079553;28;40134;-81
2022/12/25 06:02:37;;;;;;;84.50;23.33;;;;;;;5.10;100.00;101201.09;2079987;28;41572;-81
2022/12/25 06:03:39;;;;;;;96.50;25.88;;;;;;;5.11;100.00;101202.88;2080966;28;20285;-80
2022/12/25 06:04:41;;;;;;;88.43;25.85;;;;;;;5.13;100.00;101189.59;2080628;28;37600;-80
2022/12/25 06:05:43;;;;;;;101.10;25.05;;;;;;;5.14;100.00;101186.09;2079996;28;37434;-80
2022/12/25 06:06:44;;;;;;;95.03;25.63;;;;;;;5.16;100.00;101194.94;2080638;28;37922;-81
2022/12/25 06:07:46;;;;;;;79.03;24.73;;;;;;;5.17;100.00;101196.72;2079793;28;41807;-81
2022/12/25 06:08:48;;;;;;;90.78;24.65;;;;;;;5.17;100.00;101191.41;2081319;28;20839;-81
2022/12/25 06:09:49;;;;;;;85.57;24.80;;;;;;;5.17;100.00;101191.41;2080275;28;40232;-81
2022/12/25 06:10:51;;;;;;;76.68;23.60;;;;;;;5.18;100.00;101195.81;2080732;28;38668;-80
2022/12/25 06:11:53;;;;;;;86.28;23.48;;;;;;;5.16;100.00;101198.47;2079873;28;38770;-80
2022/12/25 06:12:54;;;;;;;83.13;23.85;;;;;;;5.16;100.00;101197.59;2081255;28;20038;-81
2022/12/25 06:13:56;;;;;;;84.80;24.75;;;;;;;5.17;100.00;101196.72;2080049;28;40190;-81
2022/12/25 06:15:00;;;;;;;64.22;23.02;;;;;;;5.19;100.00;101197.59;2081404;28;20049;-80
2022/12/25 06:16:05;;;;;;;87.38;24.92;;;;;;;5.16;100.00;101195.81;2080002;28;36718;-80
2022/12/25 06:17:09;;;;;;;82.53;24.88;;;;;;;5.18;100.00;101198.47;2080052;28;42248;-82
2022/12/25 06:18:11;;;;;;;72.00;23.17;;;;;;;5.18;100.00;101198.47;2080801;28;20253;-82
2022/12/25 06:19:12;;;;;;;81.75;23.80;;;;;;;5.18;100.00;101193.16;2080062;28;41679;-82
2022/12/25 06:20:14;;;;;;;78.97;23.15;;;;;;;5.20;100.00;101196.69;2081136;28;20053;-82
2022/12/25 06:21:16;;;;;;;80.35;23.70;;;;;;;5.21;100.00;101202.94;2080097;28;42821;-80
2022/12/25 06:22:18;;;;;;;68.43;23.08;;;;;;;5.20;100.00;101202.00;2080300;28;38758;-82
2022/12/25 06:23:20;;;;;;;66.50;21.13;;;;;;;5.21;100.00;101206.47;2079953;28;37547;-81
2022/12/25 06:24:25;;;;;;;73.97;23.20;;;;;;;5.21;100.00;101205.59;2080804;28;38661;-84
2022/12/25 06:25:26;;;;;;;73.50;24.08;;;;;;;5.23;100.00;101204.69;2080304;28;39164;-81
2022/12/25 06:26:28;;;;;;;73.22;23.20;;;;;;;5.23;100.00;101202.03;2079917;28;38270;-81
2022/12/25 06:27:30;;;;;;;83.25;23.35;;;;;;;5.24;100.00;101206.47;2080478;28;31400;-81
2022/12/25 06:28:31;;;;;;;80.45;23.15;;;;;;;5.25;100.00;101199.38;2079703;28;42064;-81
2022/12/25 06:29:33;;;;;;;80.13;22.70;;;;;;;5.25;100.00;101199.38;2080342;28;40322;-82
2022/12/25 06:30:37;;;;;;;71.72;22.50;;;;;;;5.27;100.00;101201.16;2079383;28;39837;-81
2022/12/25 06:31:39;;;;;;;68.35;21.73;;;;;;;5.27;100.00;101200.28;2079641;28;38870;-81
2022/12/25 06:32:41;;;;;;;69.78;21.98;;;;;;;5.27;100.00;101198.50;2079644;28;40571;-81
2022/12/25 06:33:43;;;;;;;66.68;21.17;;;;;;;5.29;100.00;101193.19;2080141;28;35596;-82
2022/12/25 06:34:47;;;;;;;72.63;20.92;;;;;;;5.30;100.00;101193.22;2080441;28;20042;-81
2022/12/25 06:35:49;;;;;;;76.55;21.05;;;;;;;5.31;100.00;101202.97;2080458;28;42215;-82
2022/12/25 06:36:53;;;;;;;73.03;21.98;;;;;;;5.31;100.00;101195.00;2080046;28;36971;-82
2022/12/25 06:37:55;;;;;;;79.63;22.52;;;;;;;5.33;100.00;101195.00;2080282;28;42421;-82